sensor_id;sensor_type;location;lat;lon;timestamp;pressure;altitude;pressure_sealevel;temperature;humidity
31771;BME280;18343;50.152;8.182;2023-02-27T00:02:31;98167.13;;;-0.32;57.57
31771;BME280;18343;50.152;8.182;2023-02-27T00:05:16;98169.88;;;-0.34;57.61
31771;BME280;18343;50.152;8.182;2023-02-27T00:08:01;98168.41;;;-0.38;57.37
31771;BME280;18343;50.152;8.182;2023-02-27T00:10:46;98168.50;;;-0.40;56.93
31771;BME280;18343;50.152;8.182;2023-02-27T00:13:30;98172.84;;;-0.39;57.71
31771;BME280;18343;50.152;8.182;2023-02-27T00:16:15;98160.78;;;-0.43;57.60
31771;BME280;18343;50.152;8.182;2023-02-27T00:19:01;98160.78;;;-0.43;57.73
31771;BME280;18343;50.152;8.182;2023-02-27T00:21:46;98165.97;;;-0.41;57.96
31771;BME280;18343;50.152;8.182;2023-02-27T00:24:31;98158.88;;;-0.41;57.76
31771;BME280;18343;50.152;8.182;2023-02-27T00:27:16;98158.66;;;-0.38;58.20
31771;BME280;18343;50.152;8.182;2023-02-27T00:30:01;98156.88;;;-0.37;58.05
31771;BME280;18343;50.152;8.182;2023-02-27T00:32:46;98160.56;;;-0.40;58.10
31771;BME280;18343;50.152;8.182;2023-02-27T00:35:32;98161.41;;;-0.39;58.29
31771;BME280;18343;50.152;8.182;2023-02-27T00:38:17;98162.25;;;-0.39;58.21
31771;BME280;18343;50.152;8.182;2023-02-27T00:41:03;98168.41;;;-0.38;58.29
31771;BME280;18343;50.152;8.182;2023-02-27T00:43:48;98179.16;;;-0.41;58.01
31771;BME280;18343;50.152;8.182;2023-02-27T00:46:33;98169.56;;;-0.42;58.10
31771;BME280;18343;50.152;8.182;2023-02-27T00:49:18;98169.88;;;-0.47;57.87
31771;BME280;18343;50.152;8.182;2023-02-27T00:52:05;98172.31;;;-0.56;57.78
31771;BME280;18343;50.152;8.182;2023-02-27T00:54:50;98180.66;;;-0.62;57.90
31771;BME280;18343;50.152;8.182;2023-02-27T00:57:35;98174.00;;;-0.68;57.89
31771;BME280;18343;50.152;8.182;2023-02-27T01:00:20;98169.13;;;-0.74;57.96
31771;BME280;18343;50.152;8.182;2023-02-27T01:03:06;98173.66;;;-0.76;58.54
31771;BME280;18343;50.152;8.182;2023-02-27T01:05:51;98172.63;;;-0.74;58.47
31771;BME280;18343;50.152;8.182;2023-02-27T01:08:37;98168.59;;;-0.79;58.16
31771;BME280;18343;50.152;8.182;2023-02-27T01:11:22;98172.50;;;-0.85;58.40
31771;BME280;18343;50.152;8.182;2023-02-27T01:14:07;98162.91;;;-0.86;58.46
31771;BME280;18343;50.152;8.182;2023-02-27T01:16:52;98163.84;;;-0.87;58.89
31771;BME280;18343;50.152;8.182;2023-02-27T01:19:37;98165.53;;;-0.86;58.84
31771;BME280;18343;50.152;8.182;2023-02-27T01:22:22;98163.94;;;-0.88;58.70
31771;BME280;18343;50.152;8.182;2023-02-27T01:25:08;98165.66;;;-0.87;58.91
31771;BME280;18343;50.152;8.182;2023-02-27T01:27:53;98169.63;;;-0.82;59.14
31771;BME280;18343;50.152;8.182;2023-02-27T01:30:38;98162.69;;;-0.83;59.04
31771;BME280;18343;50.152;8.182;2023-02-27T01:33:23;98165.19;;;-0.81;58.94
31771;BME280;18343;50.152;8.182;2023-02-27T01:36:11;98162.81;;;-0.84;58.82
31771;BME280;18343;50.152;8.182;2023-02-27T01:38:56;98163.31;;;-0.92;58.68
31771;BME280;18343;50.152;8.182;2023-02-27T01:41:43;98170.88;;;-1.00;58.61
31771;BME280;18343;50.152;8.182;2023-02-27T01:44:29;98164.97;;;-1.04;58.80
31771;BME280;18343;50.152;8.182;2023-02-27T01:47:14;98172.78;;;-1.02;58.90
31771;BME280;18343;50.152;8.182;2023-02-27T01:49:59;98176.47;;;-1.05;59.01
31771;BME280;18343;50.152;8.182;2023-02-27T01:52:46;98171.19;;;-1.05;59.22
31771;BME280;18343;50.152;8.182;2023-02-27T01:55:36;98171.09;;;-1.03;59.30
31771;BME280;18343;50.152;8.182;2023-02-27T01:58:23;98172.13;;;-1.06;59.12
31771;BME280;18343;50.152;8.182;2023-02-27T02:01:08;98158.44;;;-1.11;58.86
31771;BME280;18343;50.152;8.182;2023-02-27T02:03:59;98161.06;;;-1.11;59.54
31771;BME280;18343;50.152;8.182;2023-02-27T02:06:48;98159.47;;;-1.13;59.37
31771;BME280;18343;50.152;8.182;2023-02-27T02:09:38;98158.72;;;-1.15;59.45
31771;BME280;18343;50.152;8.182;2023-02-27T02:12:27;98158.94;;;-1.18;59.36
31771;BME280;18343;50.152;8.182;2023-02-27T02:15:15;98158.19;;;-1.20;59.17
31771;BME280;18343;50.152;8.182;2023-02-27T02:18:15;98165.16;;;-1.19;59.68
31771;BME280;18343;50.152;8.182;2023-02-27T02:21:46;98154.25;;;-1.27;58.98
31771;BME280;18343;50.152;8.182;2023-02-27T02:28:31;98163.31;;;-1.44;59.11
31771;BME280;18343;50.152;8.182;2023-02-27T02:32:05;98159.91;;;-1.46;59.40
31771;BME280;18343;50.152;8.182;2023-02-27T02:39:11;98163.97;;;-1.55;59.79
31771;BME280;18343;50.152;8.182;2023-02-27T02:42:10;98160.69;;;-1.58;59.84
31771;BME280;18343;50.152;8.182;2023-02-27T02:45:10;98164.94;;;-1.56;59.68
31771;BME280;18343;50.152;8.182;2023-02-27T02:48:07;98179.06;;;-1.57;60.09
31771;BME280;18343;50.152;8.182;2023-02-27T02:51:00;98180.75;;;-1.56;60.05
31771;BME280;18343;50.152;8.182;2023-02-27T02:53:52;98174.94;;;-1.61;59.82
31771;BME280;18343;50.152;8.182;2023-02-27T02:56:45;98169.75;;;-1.62;59.91
31771;BME280;18343;50.152;8.182;2023-02-27T02:59:37;98174.50;;;-1.67;59.97
31771;BME280;18343;50.152;8.182;2023-02-27T03:02:26;98182.69;;;-1.72;59.75
31771;BME280;18343;50.152;8.182;2023-02-27T03:05:19;98175.94;;;-1.76;60.40
31771;BME280;18343;50.152;8.182;2023-02-27T03:08:12;98171.59;;;-1.77;60.33
31771;BME280;18343;50.152;8.182;2023-02-27T03:11:03;98177.72;;;-1.77;60.42
31771;BME280;18343;50.152;8.182;2023-02-27T03:13:59;98176.97;;;-1.79;60.51
31771;BME280;18343;50.152;8.182;2023-02-27T03:16:51;98171.59;;;-1.77;60.97
31771;BME280;18343;50.152;8.182;2023-02-27T03:19:44;98172.34;;;-1.75;61.04
31771;BME280;18343;50.152;8.182;2023-02-27T03:22:34;98173.94;;;-1.73;60.79
31771;BME280;18343;50.152;8.182;2023-02-27T03:25:21;98177.53;;;-1.74;60.92
31771;BME280;18343;50.152;8.182;2023-02-27T03:28:11;98174.31;;;-1.79;60.65
31771;BME280;18343;50.152;8.182;2023-02-27T03:31:05;98177.91;;;-1.80;60.49
31771;BME280;18343;50.152;8.182;2023-02-27T03:33:54;98190.16;;;-1.79;61.35
31771;BME280;18343;50.152;8.182;2023-02-27T03:36:46;98183.66;;;-1.73;61.45
31771;BME280;18343;50.152;8.182;2023-02-27T03:39:39;98186.47;;;-1.76;60.66
31771;BME280;18343;50.152;8.182;2023-02-27T03:42:32;98187.81;;;-1.83;60.50
31771;BME280;18343;50.152;8.182;2023-02-27T03:45:27;98191.47;;;-1.86;60.71
31771;BME280;18343;50.152;8.182;2023-02-27T03:48:17;98190.91;;;-1.91;60.54
31771;BME280;18343;50.152;8.182;2023-02-27T03:51:04;98187.84;;;-1.97;60.31
31771;BME280;18343;50.152;8.182;2023-02-27T03:53:53;98196.13;;;-2.03;60.42
31771;BME280;18343;50.152;8.182;2023-02-27T03:56:45;98194.81;;;-2.11;60.63
31771;BME280;18343;50.152;8.182;2023-02-27T03:59:33;98189.06;;;-2.17;60.68
31771;BME280;18343;50.152;8.182;2023-02-27T04:02:20;98203.50;;;-2.23;60.48
31771;BME280;18343;50.152;8.182;2023-02-27T04:05:09;98199.91;;;-2.22;61.30
31771;BME280;18343;50.152;8.182;2023-02-27T04:08:31;98199.69;;;-2.19;60.75
31771;BME280;18343;50.152;8.182;2023-02-27T04:11:43;98205.09;;;-2.20;61.37
31771;BME280;18343;50.152;8.182;2023-02-27T04:14:45;98203.94;;;-2.16;62.03
31771;BME280;18343;50.152;8.182;2023-02-27T04:17:37;98207.31;;;-2.14;61.44
31771;BME280;18343;50.152;8.182;2023-02-27T04:20:41;98211.00;;;-2.17;61.57
31771;BME280;18343;50.152;8.182;2023-02-27T04:23:37;98215.50;;;-2.19;61.76
31771;BME280;18343;50.152;8.182;2023-02-27T04:26:29;98213.00;;;-2.20;61.72
31771;BME280;18343;50.152;8.182;2023-02-27T04:29:19;98212.50;;;-2.27;61.48
31771;BME280;18343;50.152;8.182;2023-02-27T04:32:15;98211.47;;;-2.24;61.30
31771;BME280;18343;50.152;8.182;2023-02-27T04:35:06;98212.25;;;-2.22;61.90
31771;BME280;18343;50.152;8.182;2023-02-27T04:38:01;98213.84;;;-2.20;61.86
31771;BME280;18343;50.152;8.182;2023-02-27T04:40:52;98208.00;;;-2.25;61.29
31771;BME280;18343;50.152;8.182;2023-02-27T04:43:40;98213.72;;;-2.32;61.07
31771;BME280;18343;50.152;8.182;2023-02-27T04:46:27;98209.97;;;-2.43;61.18
31771;BME280;18343;50.152;8.182;2023-02-27T04:49:17;98218.78;;;-2.44;61.76
31771;BME280;18343;50.152;8.182;2023-02-27T04:52:07;98218.03;;;-2.46;61.73
31771;BME280;18343;50.152;8.182;2023-02-27T04:54:59;98222.75;;;-2.51;61.49
31771;BME280;18343;50.152;8.182;2023-02-27T04:57:51;98229.16;;;-2.55;61.73
31771;BME280;18343;50.152;8.182;2023-02-27T05:00:40;98229.16;;;-2.55;61.79
31771;BME280;18343;50.152;8.182;2023-02-27T05:03:32;98241.56;;;-2.57;61.55
31771;BME280;18343;50.152;8.182;2023-02-27T05:06:22;98226.78;;;-2.59;61.97
31771;BME280;18343;50.152;8.182;2023-02-27T05:09:13;98236.66;;;-2.63;61.98
31771;BME280;18343;50.152;8.182;2023-02-27T05:12:10;98242.19;;;-2.67;61.38
31771;BME280;18343;50.152;8.182;2023-02-27T05:15:02;98241.81;;;-2.76;61.69
31771;BME280;18343;50.152;8.182;2023-02-27T05:17:54;98240.97;;;-2.76;61.87
31771;BME280;18343;50.152;8.182;2023-02-27T05:20:51;98246.31;;;-2.78;61.79
31771;BME280;18343;50.152;8.182;2023-02-27T05:23:47;98243.59;;;-2.76;62.52
31771;BME280;18343;50.152;8.182;2023-02-27T05:27:03;98253.56;;;-2.67;63.09
31771;BME280;18343;50.152;8.182;2023-02-27T05:29:52;98257.03;;;-2.66;62.55
31771;BME280;18343;50.152;8.182;2023-02-27T05:32:42;98254.50;;;-2.68;62.47
31771;BME280;18343;50.152;8.182;2023-02-27T05:35:35;98259.75;;;-2.68;63.22
31771;BME280;18343;50.152;8.182;2023-02-27T05:38:27;98260.78;;;-2.70;62.39
31771;BME280;18343;50.152;8.182;2023-02-27T05:41:17;98266.06;;;-2.70;63.48
31771;BME280;18343;50.152;8.182;2023-02-27T05:44:10;98267.47;;;-2.65;63.21
31771;BME280;18343;50.152;8.182;2023-02-27T05:46:59;98275.97;;;-2.60;63.32
31771;BME280;18343;50.152;8.182;2023-02-27T05:49:47;98266.28;;;-2.59;63.20
31771;BME280;18343;50.152;8.182;2023-02-27T05:52:35;98268.72;;;-2.56;62.87
31771;BME280;18343;50.152;8.182;2023-02-27T05:55:25;98273.31;;;-2.60;63.16
31771;BME280;18343;50.152;8.182;2023-02-27T05:58:17;98276.13;;;-2.63;62.67
31771;BME280;18343;50.152;8.182;2023-02-27T06:01:06;98269.34;;;-2.67;63.04
31771;BME280;18343;50.152;8.182;2023-02-27T06:03:51;98275.66;;;-2.69;62.67
31771;BME280;18343;50.152;8.182;2023-02-27T06:06:35;98274.97;;;-2.73;62.87
31771;BME280;18343;50.152;8.182;2023-02-27T06:09:20;98278.56;;;-2.74;63.37
31771;BME280;18343;50.152;8.182;2023-02-27T06:12:05;98273.09;;;-2.71;63.83
31771;BME280;18343;50.152;8.182;2023-02-27T06:14:50;98275.66;;;-2.69;63.38
31771;BME280;18343;50.152;8.182;2023-02-27T06:17:36;98273.19;;;-2.73;64.03
31771;BME280;18343;50.152;8.182;2023-02-27T06:20:21;98279.31;;;-2.72;64.58
31771;BME280;18343;50.152;8.182;2023-02-27T06:23:06;98275.56;;;-2.68;64.17
31771;BME280;18343;50.152;8.182;2023-02-27T06:25:51;98278.59;;;-2.60;64.65
31771;BME280;18343;50.152;8.182;2023-02-27T06:28:35;98279.44;;;-2.59;64.60
31771;BME280;18343;50.152;8.182;2023-02-27T06:31:20;98282.16;;;-2.61;64.63
31771;BME280;18343;50.152;8.182;2023-02-27T06:34:06;98283.94;;;-2.61;65.22
31771;BME280;18343;50.152;8.182;2023-02-27T06:36:50;98284.25;;;-2.52;65.72
31771;BME280;18343;50.152;8.182;2023-02-27T06:39:35;98288.97;;;-2.43;66.42
31771;BME280;18343;50.152;8.182;2023-02-27T06:42:19;98289.28;;;-2.33;66.61
31771;BME280;18343;50.152;8.182;2023-02-27T06:45:06;98288.72;;;-2.24;66.56
31771;BME280;18343;50.152;8.182;2023-02-27T06:47:51;98286.00;;;-2.22;65.96
31771;BME280;18343;50.152;8.182;2023-02-27T06:50:37;98285.06;;;-2.21;65.96
31771;BME280;18343;50.152;8.182;2023-02-27T06:53:22;98298.88;;;-2.18;66.03
31771;BME280;18343;50.152;8.182;2023-02-27T06:56:07;98288.47;;;-2.19;65.94
31771;BME280;18343;50.152;8.182;2023-02-27T06:58:52;98292.75;;;-2.32;66.92
31771;BME280;18343;50.152;8.182;2023-02-27T07:01:37;98302.94;;;-2.26;66.86
31771;BME280;18343;50.152;8.182;2023-02-27T07:04:21;98298.25;;;-2.21;67.11
31771;BME280;18343;50.152;8.182;2023-02-27T07:07:08;98297.56;;;-2.11;67.73
31771;BME280;18343;50.152;8.182;2023-02-27T07:09:53;98292.59;;;-2.01;67.79
31771;BME280;18343;50.152;8.182;2023-02-27T07:12:39;98298.25;;;-1.93;67.83
31771;BME280;18343;50.152;8.182;2023-02-27T07:15:24;98303.13;;;-1.87;68.27
31771;BME280;18343;50.152;8.182;2023-02-27T07:18:08;98305.28;;;-1.79;68.73
31771;BME280;18343;50.152;8.182;2023-02-27T07:20:55;98294.66;;;-1.78;69.14
31771;BME280;18343;50.152;8.182;2023-02-27T07:23:41;98298.34;;;-1.66;69.09
31771;BME280;18343;50.152;8.182;2023-02-27T07:26:26;98303.00;;;-1.57;69.05
31771;BME280;18343;50.152;8.182;2023-02-27T07:29:11;98301.59;;;-1.48;69.20
31771;BME280;18343;50.152;8.182;2023-02-27T07:31:55;98308.09;;;-1.40;69.52
31771;BME280;18343;50.152;8.182;2023-02-27T07:34:40;98309.97;;;-1.42;71.81
31771;BME280;18343;50.152;8.182;2023-02-27T07:37:43;98308.88;;;-1.25;70.17
31771;BME280;18343;50.152;8.182;2023-02-27T07:40:35;98311.44;;;-1.23;71.53
31771;BME280;18343;50.152;8.182;2023-02-27T07:43:28;98306.34;;;-1.26;73.35
31771;BME280;18343;50.152;8.182;2023-02-27T07:46:13;98304.97;;;-1.05;72.22
31771;BME280;18343;50.152;8.182;2023-02-27T07:48:58;98300.69;;;-0.93;72.35
31771;BME280;18343;50.152;8.182;2023-02-27T07:51:45;98308.00;;;-0.84;73.14
31771;BME280;18343;50.152;8.182;2023-02-27T07:54:34;98300.75;;;-0.68;72.59
31771;BME280;18343;50.152;8.182;2023-02-27T07:57:20;98321.28;;;-0.59;73.74
31771;BME280;18343;50.152;8.182;2023-02-27T08:00:08;98311.69;;;-0.60;73.65
31771;BME280;18343;50.152;8.182;2023-02-27T08:02:52;98316.66;;;-0.43;72.79
31771;BME280;18343;50.152;8.182;2023-02-27T08:05:37;98310.88;;;-0.35;73.58
31771;BME280;18343;50.152;8.182;2023-02-27T08:08:21;98321.88;;;-0.28;73.33
31771;BME280;18343;50.152;8.182;2023-02-27T08:11:06;98327.56;;;-0.22;73.48
31771;BME280;18343;50.152;8.182;2023-02-27T08:13:52;98328.97;;;-0.16;73.66
31771;BME280;18343;50.152;8.182;2023-02-27T08:16:36;98333.09;;;-0.12;74.51
31771;BME280;18343;50.152;8.182;2023-02-27T08:19:21;98327.81;;;-0.12;75.18
31771;BME280;18343;50.152;8.182;2023-02-27T08:22:06;98332.97;;;0.02;74.50
31771;BME280;18343;50.152;8.182;2023-02-27T08:24:50;98322.75;;;0.10;74.29
31771;BME280;18343;50.152;8.182;2023-02-27T08:27:36;98325.06;;;0.02;75.35
31771;BME280;18343;50.152;8.182;2023-02-27T08:30:22;98313.13;;;-0.04;76.26
31771;BME280;18343;50.152;8.182;2023-02-27T08:33:07;98319.34;;;0.08;77.04
31771;BME280;18343;50.152;8.182;2023-02-27T08:35:51;98325.16;;;0.00;77.12
31771;BME280;18343;50.152;8.182;2023-02-27T08:38:36;98315.75;;;0.09;77.27
31771;BME280;18343;50.152;8.182;2023-02-27T08:41:21;98325.50;;;0.21;76.66
31771;BME280;18343;50.152;8.182;2023-02-27T08:44:05;98319.16;;;0.24;77.06
31771;BME280;18343;50.152;8.182;2023-02-27T08:46:52;98319.97;;;0.37;75.99
31771;BME280;18343;50.152;8.182;2023-02-27T08:49:37;98314.28;;;0.18;77.47
31771;BME280;18343;50.152;8.182;2023-02-27T08:52:22;98321.03;;;0.34;76.94
31771;BME280;18343;50.152;8.182;2023-02-27T08:55:08;98323.78;;;0.46;76.82
31771;BME280;18343;50.152;8.182;2023-02-27T08:57:52;98322.28;;;0.42;77.57
31771;BME280;18343;50.152;8.182;2023-02-27T09:00:53;98325.31;;;0.61;76.43
31771;BME280;18343;50.152;8.182;2023-02-27T09:03:40;98325.38;;;0.36;78.00
31771;BME280;18343;50.152;8.182;2023-02-27T09:06:25;98337.22;;;0.43;78.09
31771;BME280;18343;50.152;8.182;2023-02-27T09:09:09;98330.81;;;0.71;76.76
31771;BME280;18343;50.152;8.182;2023-02-27T09:11:54;98330.50;;;0.75;76.34
31771;BME280;18343;50.152;8.182;2023-02-27T09:14:39;98331.97;;;0.79;76.46
31771;BME280;18343;50.152;8.182;2023-02-27T09:17:24;98335.56;;;0.78;76.62
31771;BME280;18343;50.152;8.182;2023-02-27T09:20:11;98334.69;;;0.90;76.39
31771;BME280;18343;50.152;8.182;2023-02-27T09:22:57;98319.84;;;0.88;77.06
31771;BME280;18343;50.152;8.182;2023-02-27T09:25:46;98327.25;;;0.95;76.80
31771;BME280;18343;50.152;8.182;2023-02-27T09:28:33;98334.25;;;0.96;76.61
31771;BME280;18343;50.152;8.182;2023-02-27T09:31:18;98328.94;;;0.96;76.51
31771;BME280;18343;50.152;8.182;2023-02-27T09:34:03;98339.00;;;1.04;77.04
31771;BME280;18343;50.152;8.182;2023-02-27T09:36:54;98340.78;;;1.04;77.29
31771;BME280;18343;50.152;8.182;2023-02-27T09:39:42;98352.16;;;0.93;77.76
31771;BME280;18343;50.152;8.182;2023-02-27T09:42:36;98350.03;;;1.22;76.34
31771;BME280;18343;50.152;8.182;2023-02-27T09:45:26;98351.91;;;1.32;76.26
31771;BME280;18343;50.152;8.182;2023-02-27T09:48:20;98359.00;;;1.56;75.88
31771;BME280;18343;50.152;8.182;2023-02-27T09:51:09;98357.59;;;1.39;76.96
31771;BME280;18343;50.152;8.182;2023-02-27T09:53:58;98359.97;;;1.55;76.36
31771;BME280;18343;50.152;8.182;2023-02-27T09:56:48;98362.63;;;1.66;76.68
31771;BME280;18343;50.152;8.182;2023-02-27T09:59:41;98364.97;;;1.47;76.34
31771;BME280;18343;50.152;8.182;2023-02-27T10:02:39;98374.94;;;1.67;76.20
31771;BME280;18343;50.152;8.182;2023-02-27T10:05:35;98365.47;;;1.76;75.35
31771;BME280;18343;50.152;8.182;2023-02-27T10:08:27;98375.56;;;1.70;75.40
31771;BME280;18343;50.152;8.182;2023-02-27T10:11:20;98380.81;;;1.83;74.61
31771;BME280;18343;50.152;8.182;2023-02-27T10:14:20;98380.63;;;1.74;75.11
31771;BME280;18343;50.152;8.182;2023-02-27T10:17:23;98375.78;;;1.91;75.39
31771;BME280;18343;50.152;8.182;2023-02-27T10:20:18;98372.50;;;1.88;75.48
31771;BME280;18343;50.152;8.182;2023-02-27T10:23:10;98371.13;;;2.17;74.79
31771;BME280;18343;50.152;8.182;2023-02-27T10:25:57;98379.09;;;2.28;74.26
31771;BME280;18343;50.152;8.182;2023-02-27T10:28:49;98390.41;;;2.19;75.04
31771;BME280;18343;50.152;8.182;2023-02-27T10:31:34;98383.34;;;2.31;74.58
31771;BME280;18343;50.152;8.182;2023-02-27T10:34:21;98382.38;;;2.32;75.07
31771;BME280;18343;50.152;8.182;2023-02-27T10:37:13;98384.00;;;2.68;75.38
31771;BME280;18343;50.152;8.182;2023-02-27T10:40:02;98375.19;;;2.67;74.63
31771;BME280;18343;50.152;8.182;2023-02-27T10:42:50;98378.03;;;2.53;74.00
31771;BME280;18343;50.152;8.182;2023-02-27T10:45:37;98381.81;;;2.73;73.07
31771;BME280;18343;50.152;8.182;2023-02-27T10:48:21;98375.28;;;2.66;72.87
31771;BME280;18343;50.152;8.182;2023-02-27T10:51:23;98380.47;;;2.90;73.17
31771;BME280;18343;50.152;8.182;2023-02-27T10:54:25;98376.50;;;2.95;71.84
31771;BME280;18343;50.152;8.182;2023-02-27T10:57:35;98368.38;;;3.19;74.14
31771;BME280;18343;50.152;8.182;2023-02-27T11:00:42;98358.88;;;3.37;73.58
31771;BME280;18343;50.152;8.182;2023-02-27T11:03:34;98364.38;;;3.57;73.17
31771;BME280;18343;50.152;8.182;2023-02-27T11:06:23;98347.28;;;3.70;72.23
31771;BME280;18343;50.152;8.182;2023-02-27T11:09:19;98367.97;;;3.67;72.66
31771;BME280;18343;50.152;8.182;2023-02-27T11:12:21;98357.09;;;3.91;71.76
31771;BME280;18343;50.152;8.182;2023-02-27T11:15:24;98357.91;;;4.02;71.95
31771;BME280;18343;50.152;8.182;2023-02-27T11:18:25;98357.91;;;4.23;71.93
31771;BME280;18343;50.152;8.182;2023-02-27T11:21:26;98347.50;;;4.20;71.92
31771;BME280;18343;50.152;8.182;2023-02-27T11:24:18;98337.41;;;4.45;71.00
31771;BME280;18343;50.152;8.182;2023-02-27T11:27:17;98334.28;;;4.39;71.37
31771;BME280;18343;50.152;8.182;2023-02-27T11:30:05;98326.75;;;4.45;70.21
31771;BME280;18343;50.152;8.182;2023-02-27T11:32:51;98327.53;;;4.56;69.57
31771;BME280;18343;50.152;8.182;2023-02-27T11:35:38;98321.53;;;4.33;68.41
31771;BME280;18343;50.152;8.182;2023-02-27T11:38:25;98318.41;;;4.28;66.99
31771;BME280;18343;50.152;8.182;2023-02-27T11:41:12;98324.91;;;4.35;68.62
31771;BME280;18343;50.152;8.182;2023-02-27T11:43:59;98325.59;;;4.07;68.19
31771;BME280;18343;50.152;8.182;2023-02-27T11:46:45;98316.28;;;4.22;67.83
31771;BME280;18343;50.152;8.182;2023-02-27T11:49:35;98317.00;;;4.24;67.52
31771;BME280;18343;50.152;8.182;2023-02-27T11:52:27;98316.31;;;4.01;67.82
31771;BME280;18343;50.152;8.182;2023-02-27T11:55:18;98310.63;;;4.16;67.33
31771;BME280;18343;50.152;8.182;2023-02-27T11:58:10;98316.59;;;3.87;68.09
31771;BME280;18343;50.152;8.182;2023-02-27T12:01:00;98303.72;;;4.03;67.58
31771;BME280;18343;50.152;8.182;2023-02-27T12:03:53;98307.47;;;3.80;66.48
31771;BME280;18343;50.152;8.182;2023-02-27T12:06:47;98289.03;;;4.09;67.14
31771;BME280;18343;50.152;8.182;2023-02-27T12:09:41;98297.69;;;3.81;66.49
31771;BME280;18343;50.152;8.182;2023-02-27T12:12:32;98291.28;;;4.14;66.24
31771;BME280;18343;50.152;8.182;2023-02-27T12:15:29;98284.03;;;4.46;65.96
31771;BME280;18343;50.152;8.182;2023-02-27T12:18:20;98283.22;;;4.25;66.14
31771;BME280;18343;50.152;8.182;2023-02-27T12:21:11;98273.75;;;4.41;63.96
31771;BME280;18343;50.152;8.182;2023-02-27T12:24:03;98265.88;;;4.61;65.46
31771;BME280;18343;50.152;8.182;2023-02-27T12:27:07;98264.19;;;4.60;63.24
31771;BME280;18343;50.152;8.182;2023-02-27T12:30:04;98272.00;;;4.52;61.20
31771;BME280;18343;50.152;8.182;2023-02-27T12:32:58;98269.78;;;4.66;62.67
31771;BME280;18343;50.152;8.182;2023-02-27T12:35:54;98261.88;;;4.86;63.84
31771;BME280;18343;50.152;8.182;2023-02-27T12:38:41;98253.03;;;4.85;62.77
31771;BME280;18343;50.152;8.182;2023-02-27T12:41:39;98252.91;;;4.87;62.41
31771;BME280;18343;50.152;8.182;2023-02-27T12:44:39;98240.47;;;4.57;61.05
31771;BME280;18343;50.152;8.182;2023-02-27T12:47:34;98242.66;;;4.82;62.11
31771;BME280;18343;50.152;8.182;2023-02-27T12:50:39;98246.16;;;4.83;61.82
31771;BME280;18343;50.152;8.182;2023-02-27T12:53:49;98244.69;;;4.69;61.47
31771;BME280;18343;50.152;8.182;2023-02-27T12:56:51;98244.06;;;4.96;60.77
31771;BME280;18343;50.152;8.182;2023-02-27T12:59:53;98243.66;;;4.91;59.49
31771;BME280;18343;50.152;8.182;2023-02-27T13:02:54;98248.25;;;4.79;59.69
31771;BME280;18343;50.152;8.182;2023-02-27T13:05:45;98241.63;;;4.64;58.46
31771;BME280;18343;50.152;8.182;2023-02-27T13:09:05;98242.78;;;4.40;58.02
31771;BME280;18343;50.152;8.182;2023-02-27T13:12:03;98249.00;;;3.90;57.75
31771;BME280;18343;50.152;8.182;2023-02-27T13:15:02;98248.22;;;3.99;57.11
31771;BME280;18343;50.152;8.182;2023-02-27T13:17:51;98256.31;;;3.97;57.30
31771;BME280;18343;50.152;8.182;2023-02-27T13:20:46;98249.06;;;3.99;56.10
31771;BME280;18343;50.152;8.182;2023-02-27T13:23:39;98253.53;;;3.99;57.06
31771;BME280;18343;50.152;8.182;2023-02-27T13:26:37;98255.22;;;4.00;56.89
31771;BME280;18343;50.152;8.182;2023-02-27T13:29:37;98268.97;;;4.05;56.22
31771;BME280;18343;50.152;8.182;2023-02-27T13:32:39;98260.47;;;3.90;55.25
31771;BME280;18343;50.152;8.182;2023-02-27T13:35:48;98263.09;;;3.81;55.64
31771;BME280;18343;50.152;8.182;2023-02-27T13:38:43;98263.19;;;4.00;55.46
31771;BME280;18343;50.152;8.182;2023-02-27T13:41:40;98261.91;;;3.94;54.43
31771;BME280;18343;50.152;8.182;2023-02-27T13:44:52;98266.81;;;4.20;55.42
31771;BME280;18343;50.152;8.182;2023-02-27T13:47:48;98267.13;;;4.26;55.16
31771;BME280;18343;50.152;8.182;2023-02-27T13:50:59;98262.13;;;4.33;55.10
31771;BME280;18343;50.152;8.182;2023-02-27T13:53:44;98262.31;;;4.51;55.54
31771;BME280;18343;50.152;8.182;2023-02-27T13:56:29;98269.66;;;4.68;55.41
31771;BME280;18343;50.152;8.182;2023-02-27T13:59:26;98271.22;;;4.70;54.18
31771;BME280;18343;50.152;8.182;2023-02-27T14:02:44;98269.25;;;4.72;54.39
31771;BME280;18343;50.152;8.182;2023-02-27T14:05:47;98257.63;;;4.73;54.15
31771;BME280;18343;50.152;8.182;2023-02-27T14:08:45;98268.81;;;4.67;54.34
31771;BME280;18343;50.152;8.182;2023-02-27T14:11:35;98272.63;;;4.65;53.42
31771;BME280;18343;50.152;8.182;2023-02-27T14:14:50;98270.94;;;4.64;53.34
31771;BME280;18343;50.152;8.182;2023-02-27T14:17:40;98273.28;;;4.57;53.57
31771;BME280;18343;50.152;8.182;2023-02-27T14:20:50;98282.34;;;4.45;53.37
31771;BME280;18343;50.152;8.182;2023-02-27T14:23:47;98279.22;;;4.40;53.23
31771;BME280;18343;50.152;8.182;2023-02-27T14:26:33;98273.47;;;4.35;53.02
31771;BME280;18343;50.152;8.182;2023-02-27T14:29:28;98279.19;;;4.30;52.08
31771;BME280;18343;50.152;8.182;2023-02-27T14:32:20;98285.22;;;4.32;52.51
31771;BME280;18343;50.152;8.182;2023-02-27T14:35:09;98276.16;;;4.45;52.71
31771;BME280;18343;50.152;8.182;2023-02-27T14:38:14;98261.41;;;4.71;52.93
31771;BME280;18343;50.152;8.182;2023-02-27T14:41:14;98272.53;;;4.86;52.48
31771;BME280;18343;50.152;8.182;2023-02-27T14:44:04;98266.00;;;4.69;51.69
31771;BME280;18343;50.152;8.182;2023-02-27T14:47:00;98264.63;;;4.65;51.34
31771;BME280;18343;50.152;8.182;2023-02-27T14:49:49;98264.84;;;4.92;51.67
31771;BME280;18343;50.152;8.182;2023-02-27T14:52:41;98260.66;;;5.19;51.71
31771;BME280;18343;50.152;8.182;2023-02-27T14:55:34;98273.28;;;5.17;51.63
31771;BME280;18343;50.152;8.182;2023-02-27T14:58:20;98269.91;;;5.24;51.57
31771;BME280;18343;50.152;8.182;2023-02-27T15:01:09;98266.84;;;5.29;51.30
31771;BME280;18343;50.152;8.182;2023-02-27T15:03:56;98273.84;;;5.30;50.79
31771;BME280;18343;50.152;8.182;2023-02-27T15:06:45;98266.25;;;5.06;50.36
31771;BME280;18343;50.152;8.182;2023-02-27T15:09:36;98272.28;;;5.08;50.43
31771;BME280;18343;50.152;8.182;2023-02-27T15:12:57;98272.56;;;5.05;50.33
31771;BME280;18343;50.152;8.182;2023-02-27T15:15:42;98268.34;;;5.02;50.07
31771;BME280;18343;50.152;8.182;2023-02-27T15:18:26;98269.03;;;4.85;50.08
31771;BME280;18343;50.152;8.182;2023-02-27T15:21:14;98279.69;;;4.85;49.65